sensor_id;sensor_type;location;lat;lon;timestamp;P1;durP1;ratioP1;P2;durP2;ratioP2
48199;SDS011;33990;44.602;10.976;2024-02-28T00:00:56;3.38;;;2.25;;
48199;SDS011;33990;44.602;10.976;2024-02-28T00:03:23;3.10;;;2.05;;
48199;SDS011;33990;44.602;10.976;2024-02-28T00:05:51;4.70;;;2.63;;
48199;SDS011;33990;44.602;10.976;2024-02-28T00:08:18;3.55;;;2.38;;
48199;SDS011;33990;44.602;10.976;2024-02-28T00:10:47;5.20;;;2.58;;
48199;SDS011;33990;44.602;10.976;2024-02-28T00:13:14;4.78;;;2.42;;
48199;SDS011;33990;44.602;10.976;2024-02-28T00:15:42;3.90;;;2.15;;
48199;SDS011;33990;44.602;10.976;2024-02-28T00:18:10;4.72;;;2.15;;
48199;SDS011;33990;44.602;10.976;2024-02-28T00:20:37;3.72;;;1.92;;
48199;SDS011;33990;44.602;10.976;2024-02-28T00:23:04;4.43;;;2.55;;
48199;SDS011;33990;44.602;10.976;2024-02-28T00:25:32;5.63;;;2.13;;
48199;SDS011;33990;44.602;10.976;2024-02-28T00:27:59;3.65;;;2.25;;
48199;SDS011;33990;44.602;10.976;2024-02-28T00:30:26;3.75;;;2.88;;
48199;SDS011;33990;44.602;10.976;2024-02-28T00:32:55;3.35;;;2.42;;
48199;SDS011;33990;44.602;10.976;2024-02-28T00:35:22;5.55;;;2.28;;
48199;SDS011;33990;44.602;10.976;2024-02-28T00:37:50;3.42;;;2.08;;
48199;SDS011;33990;44.602;10.976;2024-02-28T00:40:17;3.80;;;2.53;;
48199;SDS011;33990;44.602;10.976;2024-02-28T00:42:44;3.42;;;2.03;;
48199;SDS011;33990;44.602;10.976;2024-02-28T00:45:12;3.05;;;2.00;;
48199;SDS011;33990;44.602;10.976;2024-02-28T00:47:40;3.58;;;2.25;;
48199;SDS011;33990;44.602;10.976;2024-02-28T00:50:08;3.92;;;2.47;;
48199;SDS011;33990;44.602;10.976;2024-02-28T00:52:35;6.53;;;2.33;;
48199;SDS011;33990;44.602;10.976;2024-02-28T00:55:03;4.28;;;2.50;;
48199;SDS011;33990;44.602;10.976;2024-02-28T00:57:31;4.72;;;2.05;;
48199;SDS011;33990;44.602;10.976;2024-02-28T00:59:59;3.05;;;2.03;;
48199;SDS011;33990;44.602;10.976;2024-02-28T01:02:26;2.70;;;1.73;;
48199;SDS011;33990;44.602;10.976;2024-02-28T01:04:54;2.63;;;1.80;;
48199;SDS011;33990;44.602;10.976;2024-02-28T01:07:21;4.32;;;2.65;;
48199;SDS011;33990;44.602;10.976;2024-02-28T01:09:48;3.00;;;2.00;;
48199;SDS011;33990;44.602;10.976;2024-02-28T01:12:16;3.28;;;2.28;;
48199;SDS011;33990;44.602;10.976;2024-02-28T01:14:43;4.40;;;2.45;;
48199;SDS011;33990;44.602;10.976;2024-02-28T01:17:11;3.70;;;2.40;;
48199;SDS011;33990;44.602;10.976;2024-02-28T01:19:38;3.70;;;2.17;;
48199;SDS011;33990;44.602;10.976;2024-02-28T01:22:05;2.90;;;1.92;;
48199;SDS011;33990;44.602;10.976;2024-02-28T01:24:33;3.45;;;2.10;;
48199;SDS011;33990;44.602;10.976;2024-02-28T01:27:00;5.10;;;2.85;;
48199;SDS011;33990;44.602;10.976;2024-02-28T01:29:28;4.05;;;2.60;;
48199;SDS011;33990;44.602;10.976;2024-02-28T01:31:56;4.82;;;2.15;;
48199;SDS011;33990;44.602;10.976;2024-02-28T01:34:24;3.20;;;2.05;;
48199;SDS011;33990;44.602;10.976;2024-02-28T01:36:51;3.53;;;2.35;;
48199;SDS011;33990;44.602;10.976;2024-02-28T01:39:19;3.38;;;2.05;;
48199;SDS011;33990;44.602;10.976;2024-02-28T01:41:53;3.20;;;2.15;;
48199;SDS011;33990;44.602;10.976;2024-02-28T01:44:21;4.40;;;2.53;;
48199;SDS011;33990;44.602;10.976;2024-02-28T01:46:48;3.45;;;2.17;;
48199;SDS011;33990;44.602;10.976;2024-02-28T01:49:16;3.70;;;2.03;;
48199;SDS011;33990;44.602;10.976;2024-02-28T01:51:44;3.47;;;2.30;;
48199;SDS011;33990;44.602;10.976;2024-02-28T01:54:11;3.50;;;2.00;;
48199;SDS011;33990;44.602;10.976;2024-02-28T01:56:39;4.55;;;2.40;;
48199;SDS011;33990;44.602;10.976;2024-02-28T01:59:07;3.33;;;2.13;;
48199;SDS011;33990;44.602;10.976;2024-02-28T02:01:37;3.50;;;2.38;;
48199;SDS011;33990;44.602;10.976;2024-02-28T02:04:05;4.82;;;2.15;;
48199;SDS011;33990;44.602;10.976;2024-02-28T02:06:33;2.97;;;2.22;;
48199;SDS011;33990;44.602;10.976;2024-02-28T02:09:04;3.15;;;2.25;;
48199;SDS011;33990;44.602;10.976;2024-02-28T02:11:31;3.63;;;2.30;;
48199;SDS011;33990;44.602;10.976;2024-02-28T02:14:00;3.53;;;1.83;;
48199;SDS011;33990;44.602;10.976;2024-02-28T02:16:27;3.92;;;2.25;;
48199;SDS011;33990;44.602;10.976;2024-02-28T02:18:54;3.35;;;2.20;;
48199;SDS011;33990;44.602;10.976;2024-02-28T02:21:31;3.60;;;2.58;;
48199;SDS011;33990;44.602;10.976;2024-02-28T02:24:04;3.88;;;2.42;;
48199;SDS011;33990;44.602;10.976;2024-02-28T02:26:32;3.28;;;2.22;;
48199;SDS011;33990;44.602;10.976;2024-02-28T02:29:00;3.13;;;2.30;;
48199;SDS011;33990;44.602;10.976;2024-02-28T02:31:27;3.65;;;2.40;;
48199;SDS011;33990;44.602;10.976;2024-02-28T02:33:54;3.03;;;2.10;;
48199;SDS011;33990;44.602;10.976;2024-02-28T02:36:23;3.55;;;2.25;;
48199;SDS011;33990;44.602;10.976;2024-02-28T02:38:50;4.30;;;2.65;;
48199;SDS011;33990;44.602;10.976;2024-02-28T02:41:17;3.22;;;2.17;;
48199;SDS011;33990;44.602;10.976;2024-02-28T02:43:45;3.17;;;2.20;;
48199;SDS011;33990;44.602;10.976;2024-02-28T02:46:12;3.20;;;2.30;;
48199;SDS011;33990;44.602;10.976;2024-02-28T02:48:39;3.05;;;2.28;;
48199;SDS011;33990;44.602;10.976;2024-02-28T02:51:07;3.60;;;2.28;;
48199;SDS011;33990;44.602;10.976;2024-02-28T02:53:34;3.85;;;2.75;;
48199;SDS011;33990;44.602;10.976;2024-02-28T02:56:04;3.03;;;2.08;;
48199;SDS011;33990;44.602;10.976;2024-02-28T02:58:32;3.42;;;2.15;;
48199;SDS011;33990;44.602;10.976;2024-02-28T03:00:59;3.25;;;2.10;;
48199;SDS011;33990;44.602;10.976;2024-02-28T03:03:27;4.07;;;2.50;;
48199;SDS011;33990;44.602;10.976;2024-02-28T03:05:54;3.22;;;2.22;;
48199;SDS011;33990;44.602;10.976;2024-02-28T03:08:21;2.60;;;1.80;;
48199;SDS011;33990;44.602;10.976;2024-02-28T03:10:49;4.03;;;2.70;;
48199;SDS011;33990;44.602;10.976;2024-02-28T03:13:16;3.78;;;2.42;;
48199;SDS011;33990;44.602;10.976;2024-02-28T03:15:43;3.55;;;2.50;;
48199;SDS011;33990;44.602;10.976;2024-02-28T03:18:11;3.53;;;2.45;;
48199;SDS011;33990;44.602;10.976;2024-02-28T03:20:38;3.08;;;2.25;;
48199;SDS011;33990;44.602;10.976;2024-02-28T03:23:06;3.67;;;2.25;;
48199;SDS011;33990;44.602;10.976;2024-02-28T03:25:33;3.40;;;2.28;;
48199;SDS011;33990;44.602;10.976;2024-02-28T03:28:01;4.50;;;2.35;;
48199;SDS011;33990;44.602;10.976;2024-02-28T03:30:28;4.22;;;2.45;;
48199;SDS011;33990;44.602;10.976;2024-02-28T03:32:55;3.90;;;2.55;;
48199;SDS011;33990;44.602;10.976;2024-02-28T03:35:23;2.90;;;2.13;;
48199;SDS011;33990;44.602;10.976;2024-02-28T03:37:50;3.85;;;2.20;;
48199;SDS011;33990;44.602;10.976;2024-02-28T03:40:17;3.67;;;2.85;;
48199;SDS011;33990;44.602;10.976;2024-02-28T03:42:45;3.55;;;2.67;;
48199;SDS011;33990;44.602;10.976;2024-02-28T03:45:13;3.65;;;2.50;;
48199;SDS011;33990;44.602;10.976;2024-02-28T03:47:40;4.55;;;3.15;;
48199;SDS011;33990;44.602;10.976;2024-02-28T03:50:07;2.97;;;2.10;;
48199;SDS011;33990;44.602;10.976;2024-02-28T03:52:35;3.58;;;2.55;;
48199;SDS011;33990;44.602;10.976;2024-02-28T03:55:02;4.80;;;2.38;;
48199;SDS011;33990;44.602;10.976;2024-02-28T03:57:30;4.47;;;2.70;;
48199;SDS011;33990;44.602;10.976;2024-02-28T03:59:57;4.25;;;2.42;;
48199;SDS011;33990;44.602;10.976;2024-02-28T04:02:24;4.47;;;2.85;;
48199;SDS011;33990;44.602;10.976;2024-02-28T04:04:52;3.72;;;2.55;;
48199;SDS011;33990;44.602;10.976;2024-02-28T04:07:19;3.40;;;2.35;;
48199;SDS011;33990;44.602;10.976;2024-02-28T04:09:47;4.10;;;2.80;;
48199;SDS011;33990;44.602;10.976;2024-02-28T04:12:14;4.80;;;2.50;;
48199;SDS011;33990;44.602;10.976;2024-02-28T04:14:41;3.50;;;2.40;;
48199;SDS011;33990;44.602;10.976;2024-02-28T04:17:09;3.20;;;2.47;;
48199;SDS011;33990;44.602;10.976;2024-02-28T04:19:36;3.70;;;2.40;;
48199;SDS011;33990;44.602;10.976;2024-02-28T04:22:04;3.55;;;2.47;;
48199;SDS011;33990;44.602;10.976;2024-02-28T04:24:32;4.38;;;2.83;;
48199;SDS011;33990;44.602;10.976;2024-02-28T04:26:59;3.80;;;2.80;;
48199;SDS011;33990;44.602;10.976;2024-02-28T04:29:30;4.22;;;2.35;;
48199;SDS011;33990;44.602;10.976;2024-02-28T04:31:57;5.68;;;3.30;;
48199;SDS011;33990;44.602;10.976;2024-02-28T04:34:24;3.60;;;2.60;;
48199;SDS011;33990;44.602;10.976;2024-02-28T04:36:51;6.28;;;3.03;;
48199;SDS011;33990;44.602;10.976;2024-02-28T04:39:19;4.70;;;3.03;;
48199;SDS011;33990;44.602;10.976;2024-02-28T04:41:46;4.28;;;2.85;;
48199;SDS011;33990;44.602;10.976;2024-02-28T04:44:13;5.55;;;3.15;;
48199;SDS011;33990;44.602;10.976;2024-02-28T04:46:41;5.47;;;3.05;;
48199;SDS011;33990;44.602;10.976;2024-02-28T04:49:08;5.78;;;3.42;;
48199;SDS011;33990;44.602;10.976;2024-02-28T04:51:36;5.13;;;3.00;;
48199;SDS011;33990;44.602;10.976;2024-02-28T04:54:03;5.15;;;3.17;;
48199;SDS011;33990;44.602;10.976;2024-02-28T04:56:31;6.70;;;3.30;;
48199;SDS011;33990;44.602;10.976;2024-02-28T04:58:58;5.45;;;3.42;;
48199;SDS011;33990;44.602;10.976;2024-02-28T05:01:25;4.95;;;3.33;;
48199;SDS011;33990;44.602;10.976;2024-02-28T05:03:55;4.60;;;3.08;;
48199;SDS011;33990;44.602;10.976;2024-02-28T05:06:22;4.95;;;3.17;;
48199;SDS011;33990;44.602;10.976;2024-02-28T05:08:50;5.25;;;3.67;;
48199;SDS011;33990;44.602;10.976;2024-02-28T05:11:17;4.20;;;3.33;;
48199;SDS011;33990;44.602;10.976;2024-02-28T05:13:45;4.45;;;2.88;;
48199;SDS011;33990;44.602;10.976;2024-02-28T05:16:15;6.20;;;3.25;;
48199;SDS011;33990;44.602;10.976;2024-02-28T05:18:45;5.35;;;3.25;;
48199;SDS011;33990;44.602;10.976;2024-02-28T05:21:13;4.60;;;3.25;;
48199;SDS011;33990;44.602;10.976;2024-02-28T05:23:41;5.43;;;3.50;;
48199;SDS011;33990;44.602;10.976;2024-02-28T05:26:08;5.22;;;3.47;;
48199;SDS011;33990;44.602;10.976;2024-02-28T05:28:36;6.35;;;3.33;;
48199;SDS011;33990;44.602;10.976;2024-02-28T05:31:03;4.35;;;3.35;;
48199;SDS011;33990;44.602;10.976;2024-02-28T05:33:48;6.32;;;3.78;;
48199;SDS011;33990;44.602;10.976;2024-02-28T05:36:20;6.05;;;4.43;;
48199;SDS011;33990;44.602;10.976;2024-02-28T05:38:49;4.80;;;3.60;;
48199;SDS011;33990;44.602;10.976;2024-02-28T05:41:18;5.95;;;4.20;;
48199;SDS011;33990;44.602;10.976;2024-02-28T05:43:46;4.97;;;3.63;;
48199;SDS011;33990;44.602;10.976;2024-02-28T05:46:14;6.63;;;4.35;;
48199;SDS011;33990;44.602;10.976;2024-02-28T05:48:43;7.90;;;4.45;;
48199;SDS011;33990;44.602;10.976;2024-02-28T05:51:11;7.85;;;4.50;;
48199;SDS011;33990;44.602;10.976;2024-02-28T05:53:40;6.75;;;4.95;;
48199;SDS011;33990;44.602;10.976;2024-02-28T05:56:11;5.93;;;4.72;;
48199;SDS011;33990;44.602;10.976;2024-02-28T05:58:42;7.82;;;5.10;;
48199;SDS011;33990;44.602;10.976;2024-02-28T06:01:10;7.40;;;4.75;;
48199;SDS011;33990;44.602;10.976;2024-02-28T06:03:39;8.45;;;6.13;;
48199;SDS011;33990;44.602;10.976;2024-02-28T06:06:06;7.25;;;4.93;;
48199;SDS011;33990;44.602;10.976;2024-02-28T06:08:34;7.97;;;5.60;;
48199;SDS011;33990;44.602;10.976;2024-02-28T06:11:06;7.00;;;4.83;;
48199;SDS011;33990;44.602;10.976;2024-02-28T06:13:34;6.13;;;4.32;;
48199;SDS011;33990;44.602;10.976;2024-02-28T06:16:02;6.75;;;5.00;;
48199;SDS011;33990;44.602;10.976;2024-02-28T06:18:30;5.57;;;4.10;;
48199;SDS011;33990;44.602;10.976;2024-02-28T06:21:01;6.43;;;4.25;;
48199;SDS011;33990;44.602;10.976;2024-02-28T06:23:28;6.28;;;4.28;;
48199;SDS011;33990;44.602;10.976;2024-02-28T06:25:56;6.13;;;4.47;;
48199;SDS011;33990;44.602;10.976;2024-02-28T06:28:24;6.90;;;4.53;;
48199;SDS011;33990;44.602;10.976;2024-02-28T06:30:52;7.60;;;5.03;;
48199;SDS011;33990;44.602;10.976;2024-02-28T06:33:19;7.70;;;5.22;;
48199;SDS011;33990;44.602;10.976;2024-02-28T06:35:47;6.90;;;5.45;;
48199;SDS011;33990;44.602;10.976;2024-02-28T06:38:14;8.07;;;5.20;;
48199;SDS011;33990;44.602;10.976;2024-02-28T06:40:42;8.02;;;4.88;;
48199;SDS011;33990;44.602;10.976;2024-02-28T06:43:09;5.75;;;4.60;;
48199;SDS011;33990;44.602;10.976;2024-02-28T06:45:36;6.97;;;5.43;;
48199;SDS011;33990;44.602;10.976;2024-02-28T06:48:04;7.40;;;5.13;;
48199;SDS011;33990;44.602;10.976;2024-02-28T06:50:32;7.00;;;4.70;;
48199;SDS011;33990;44.602;10.976;2024-02-28T06:53:00;6.55;;;5.47;;
48199;SDS011;33990;44.602;10.976;2024-02-28T06:55:27;8.75;;;5.78;;
48199;SDS011;33990;44.602;10.976;2024-02-28T06:57:54;9.52;;;5.60;;
48199;SDS011;33990;44.602;10.976;2024-02-28T07:00:24;9.40;;;5.13;;
48199;SDS011;33990;44.602;10.976;2024-02-28T07:02:51;7.18;;;5.53;;
48199;SDS011;33990;44.602;10.976;2024-02-28T07:05:21;7.10;;;4.95;;
48199;SDS011;33990;44.602;10.976;2024-02-28T07:07:49;9.55;;;5.43;;
48199;SDS011;33990;44.602;10.976;2024-02-28T07:10:16;7.78;;;5.50;;
48199;SDS011;33990;44.602;10.976;2024-02-28T07:12:44;7.78;;;5.25;;
48199;SDS011;33990;44.602;10.976;2024-02-28T07:15:11;8.20;;;5.05;;
48199;SDS011;33990;44.602;10.976;2024-02-28T07:17:38;7.18;;;5.13;;
48199;SDS011;33990;44.602;10.976;2024-02-28T07:20:06;6.32;;;4.57;;
48199;SDS011;33990;44.602;10.976;2024-02-28T07:22:34;6.50;;;4.75;;
48199;SDS011;33990;44.602;10.976;2024-02-28T07:25:01;6.63;;;5.50;;
48199;SDS011;33990;44.602;10.976;2024-02-28T07:27:28;8.73;;;5.07;;
48199;SDS011;33990;44.602;10.976;2024-02-28T07:29:56;7.22;;;4.93;;
48199;SDS011;33990;44.602;10.976;2024-02-28T07:32:23;5.85;;;4.38;;
48199;SDS011;33990;44.602;10.976;2024-02-28T07:34:51;7.28;;;4.47;;
48199;SDS011;33990;44.602;10.976;2024-02-28T07:37:18;8.55;;;6.07;;
48199;SDS011;33990;44.602;10.976;2024-02-28T07:39:45;6.95;;;4.93;;
48199;SDS011;33990;44.602;10.976;2024-02-28T07:42:14;5.53;;;4.13;;
48199;SDS011;33990;44.602;10.976;2024-02-28T07:44:42;6.90;;;4.78;;
48199;SDS011;33990;44.602;10.976;2024-02-28T07:47:09;9.07;;;4.68;;
48199;SDS011;33990;44.602;10.976;2024-02-28T07:49:36;9.52;;;4.95;;
48199;SDS011;33990;44.602;10.976;2024-02-28T07:52:03;7.57;;;4.60;;
48199;SDS011;33990;44.602;10.976;2024-02-28T07:54:31;9.68;;;5.40;;
48199;SDS011;33990;44.602;10.976;2024-02-28T07:56:58;7.97;;;5.18;;
48199;SDS011;33990;44.602;10.976;2024-02-28T07:59:26;7.57;;;4.30;;
48199;SDS011;33990;44.602;10.976;2024-02-28T08:01:53;7.50;;;4.95;;
48199;SDS011;33990;44.602;10.976;2024-02-28T08:04:21;7.53;;;5.50;;
48199;SDS011;33990;44.602;10.976;2024-02-28T08:06:48;7.25;;;4.70;;
48199;SDS011;33990;44.602;10.976;2024-02-28T08:09:15;7.18;;;4.93;;
48199;SDS011;33990;44.602;10.976;2024-02-28T08:11:43;7.35;;;4.82;;
48199;SDS011;33990;44.602;10.976;2024-02-28T08:14:11;6.43;;;4.28;;
48199;SDS011;33990;44.602;10.976;2024-02-28T08:16:39;7.20;;;4.25;;
48199;SDS011;33990;44.602;10.976;2024-02-28T08:19:06;8.20;;;4.88;;
48199;SDS011;33990;44.602;10.976;2024-02-28T08:21:36;8.75;;;5.32;;
48199;SDS011;33990;44.602;10.976;2024-02-28T08:24:03;10.35;;;6.30;;
48199;SDS011;33990;44.602;10.976;2024-02-28T08:26:31;9.07;;;5.78;;
48199;SDS011;33990;44.602;10.976;2024-02-28T08:28:59;8.85;;;5.65;;
48199;SDS011;33990;44.602;10.976;2024-02-28T08:31:26;10.00;;;6.47;;
48199;SDS011;33990;44.602;10.976;2024-02-28T08:33:53;11.38;;;7.70;;
48199;SDS011;33990;44.602;10.976;2024-02-28T08:36:22;12.55;;;8.15;;
48199;SDS011;33990;44.602;10.976;2024-02-28T08:38:50;17.15;;;9.07;;
48199;SDS011;33990;44.602;10.976;2024-02-28T08:41:18;12.20;;;7.95;;
48199;SDS011;33990;44.602;10.976;2024-02-28T08:43:46;13.68;;;8.25;;
48199;SDS011;33990;44.602;10.976;2024-02-28T08:46:14;13.90;;;8.85;;
48199;SDS011;33990;44.602;10.976;2024-02-28T08:48:43;16.90;;;9.82;;
48199;SDS011;33990;44.602;10.976;2024-02-28T08:51:11;16.60;;;11.00;;
48199;SDS011;33990;44.602;10.976;2024-02-28T08:53:38;20.55;;;11.18;;
48199;SDS011;33990;44.602;10.976;2024-02-28T08:56:06;17.80;;;10.48;;
48199;SDS011;33990;44.602;10.976;2024-02-28T08:58:33;22.88;;;11.45;;
48199;SDS011;33990;44.602;10.976;2024-02-28T09:01:01;17.13;;;11.20;;
48199;SDS011;33990;44.602;10.976;2024-02-28T09:03:28;16.20;;;10.55;;
48199;SDS011;33990;44.602;10.976;2024-02-28T09:05:56;13.48;;;9.32;;
48199;SDS011;33990;44.602;10.976;2024-02-28T09:08:23;13.60;;;8.20;;
48199;SDS011;33990;44.602;10.976;2024-02-28T09:10:50;15.32;;;8.15;;
48199;SDS011;33990;44.602;10.976;2024-02-28T09:13:18;12.30;;;7.75;;
48199;SDS011;33990;44.602;10.976;2024-02-28T09:15:47;10.85;;;7.60;;
48199;SDS011;33990;44.602;10.976;2024-02-28T09:18:16;8.43;;;6.40;;
48199;SDS011;33990;44.602;10.976;2024-02-28T09:20:44;9.43;;;6.93;;
48199;SDS011;33990;44.602;10.976;2024-02-28T09:23:13;9.88;;;7.07;;
48199;SDS011;33990;44.602;10.976;2024-02-28T09:25:41;7.85;;;6.13;;
48199;SDS011;33990;44.602;10.976;2024-02-28T09:28:09;10.98;;;6.38;;
48199;SDS011;33990;44.602;10.976;2024-02-28T09:30:39;10.25;;;6.00;;
48199;SDS011;33990;44.602;10.976;2024-02-28T09:33:18;10.25;;;6.43;;
48199;SDS011;33990;44.602;10.976;2024-02-28T09:35:47;9.77;;;6.28;;
48199;SDS011;33990;44.602;10.976;2024-02-28T09:38:14;10.25;;;6.03;;
48199;SDS011;33990;44.602;10.976;2024-02-28T09:40:45;9.68;;;5.75;;
48199;SDS011;33990;44.602;10.976;2024-02-28T09:43:36;9.57;;;6.32;;
48199;SDS011;33990;44.602;10.976;2024-02-28T09:46:07;9.98;;;6.32;;
48199;SDS011;33990;44.602;10.976;2024-02-28T09:48:41;8.77;;;5.75;;
48199;SDS011;33990;44.602;10.976;2024-02-28T09:51:09;8.95;;;5.88;;
48199;SDS011;33990;44.602;10.976;2024-02-28T09:53:40;8.68;;;5.60;;
48199;SDS011;33990;44.602;10.976;2024-02-28T09:56:07;8.07;;;5.50;;
48199;SDS011;33990;44.602;10.976;2024-02-28T09:58:35;7.88;;;4.65;;
48199;SDS011;33990;44.602;10.976;2024-02-28T10:01:02;11.45;;;5.55;;
48199;SDS011;33990;44.602;10.976;2024-02-28T10:03:31;8.25;;;5.03;;
48199;SDS011;33990;44.602;10.976;2024-02-28T10:05:59;7.75;;;6.32;;
48199;SDS011;33990;44.602;10.976;2024-02-28T10:08:31;10.43;;;6.63;;
48199;SDS011;33990;44.602;10.976;2024-02-28T10:10:59;9.40;;;5.60;;
48199;SDS011;33990;44.602;10.976;2024-02-28T10:13:26;9.15;;;5.75;;
48199;SDS011;33990;44.602;10.976;2024-02-28T10:15:54;7.65;;;5.70;;
48199;SDS011;33990;44.602;10.976;2024-02-28T10:18:21;9.07;;;6.00;;
48199;SDS011;33990;44.602;10.976;2024-02-28T10:20:49;9.05;;;6.10;;
48199;SDS011;33990;44.602;10.976;2024-02-28T10:23:16;9.20;;;5.50;;
48199;SDS011;33990;44.602;10.976;2024-02-28T10:25:47;8.20;;;5.68;;
48199;SDS011;33990;44.602;10.976;2024-02-28T10:28:17;7.68;;;5.70;;
48199;SDS011;33990;44.602;10.976;2024-02-28T10:30:45;8.75;;;5.63;;
48199;SDS011;33990;44.602;10.976;2024-02-28T10:33:12;8.07;;;5.22;;
48199;SDS011;33990;44.602;10.976;2024-02-28T10:35:41;9.65;;;6.10;;
48199;SDS011;33990;44.602;10.976;2024-02-28T10:38:11;7.47;;;5.10;;
48199;SDS011;33990;44.602;10.976;2024-02-28T10:40:40;10.10;;;5.95;;
48199;SDS011;33990;44.602;10.976;2024-02-28T10:43:09;7.88;;;5.03;;
48199;SDS011;33990;44.602;10.976;2024-02-28T10:45:37;8.65;;;4.88;;
48199;SDS011;33990;44.602;10.976;2024-02-28T10:48:26;8.23;;;5.40;;
48199;SDS011;33990;44.602;10.976;2024-02-28T10:50:54;7.68;;;5.30;;
48199;SDS011;33990;44.602;10.976;2024-02-28T10:53:22;9.35;;;5.00;;
48199;SDS011;33990;44.602;10.976;2024-02-28T10:56:01;7.05;;;4.80;;
48199;SDS011;33990;44.602;10.976;2024-02-28T10:58:34;6.50;;;5.07;;
48199;SDS011;33990;44.602;10.976;2024-02-28T11:01:05;6.75;;;4.95;;
48199;SDS011;33990;44.602;10.976;2024-02-28T11:03:33;5.55;;;4.13;;
48199;SDS011;33990;44.602;10.976;2024-02-28T11:06:01;7.20;;;4.95;;
48199;SDS011;33990;44.602;10.976;2024-02-28T11:08:29;8.10;;;4.60;;
48199;SDS011;33990;44.602;10.976;2024-02-28T11:10:57;7.53;;;4.97;;
48199;SDS011;33990;44.602;10.976;2024-02-28T11:13:26;7.57;;;4.40;;
48199;SDS011;33990;44.602;10.976;2024-02-28T11:15:54;8.55;;;4.63;;
48199;SDS011;33990;44.602;10.976;2024-02-28T11:18:25;9.63;;;4.65;;
48199;SDS011;33990;44.602;10.976;2024-02-28T11:20:52;6.53;;;4.88;;
48199;SDS011;33990;44.602;10.976;2024-02-28T11:23:20;5.57;;;3.67;;
48199;SDS011;33990;44.602;10.976;2024-02-28T11:25:48;6.63;;;4.68;;
48199;SDS011;33990;44.602;10.976;2024-02-28T11:28:16;7.82;;;4.53;;
48199;SDS011;33990;44.602;10.976;2024-02-28T11:30:43;6.45;;;4.30;;
48199;SDS011;33990;44.602;10.976;2024-02-28T11:33:11;5.53;;;4.03;;
48199;SDS011;33990;44.602;10.976;2024-02-28T11:35:38;6.82;;;5.05;;
48199;SDS011;33990;44.602;10.976;2024-02-28T11:38:06;7.55;;;5.15;;
48199;SDS011;33990;44.602;10.976;2024-02-28T11:40:33;5.82;;;4.25;;
48199;SDS011;33990;44.602;10.976;2024-02-28T11:43:01;5.82;;;4.50;;
48199;SDS011;33990;44.602;10.976;2024-02-28T11:45:30;5.75;;;4.95;;
48199;SDS011;33990;44.602;10.976;2024-02-28T11:47:58;6.53;;;4.55;;
48199;SDS011;33990;44.602;10.976;2024-02-28T11:50:27;5.18;;;4.15;;
48199;SDS011;33990;44.602;10.976;2024-02-28T11:52:57;4.78;;;3.30;;
48199;SDS011;33990;44.602;10.976;2024-02-28T11:55:25;5.78;;;3.97;;
48199;SDS011;33990;44.602;10.976;2024-02-28T11:57:52;5.80;;;3.83;;
48199;SDS011;33990;44.602;10.976;2024-02-28T12:00:23;5.20;;;3.95;;
48199;SDS011;33990;44.602;10.976;2024-02-28T12:02:50;5.18;;;3.60;;
48199;SDS011;33990;44.602;10.976;2024-02-28T12:05:19;4.40;;;3.40;;
48199;SDS011;33990;44.602;10.976;2024-02-28T12:07:46;4.85;;;3.33;;
48199;SDS011;33990;44.602;10.976;2024-02-28T12:10:14;5.50;;;3.15;;
48199;SDS011;33990;44.602;10.976;2024-02-28T12:12:41;4.05;;;2.80;;
48199;SDS011;33990;44.602;10.976;2024-02-28T12:15:09;5.13;;;2.60;;
48199;SDS011;33990;44.602;10.976;2024-02-28T12:17:37;5.55;;;3.17;;
48199;SDS011;33990;44.602;10.976;2024-02-28T12:20:04;6.45;;;3.03;;
48199;SDS011;33990;44.602;10.976;2024-02-28T12:22:33;6.38;;;3.13;;
48199;SDS011;33990;44.602;10.976;2024-02-28T12:25:00;4.95;;;2.60;;
48199;SDS011;33990;44.602;10.976;2024-02-28T12:27:31;4.18;;;2.83;;
48199;SDS011;33990;44.602;10.976;2024-02-28T12:29:59;4.47;;;3.00;;
48199;SDS011;33990;44.602;10.976;2024-02-28T12:32:26;6.20;;;2.90;;
48199;SDS011;33990;44.602;10.976;2024-02-28T12:34:54;4.85;;;3.00;;
48199;SDS011;33990;44.602;10.976;2024-02-28T12:37:21;5.18;;;3.22;;
48199;SDS011;33990;44.602;10.976;2024-02-28T12:39:49;5.43;;;3.40;;
48199;SDS011;33990;44.602;10.976;2024-02-28T12:42:18;6.22;;;3.55;;
48199;SDS011;33990;44.602;10.976;2024-02-28T12:44:46;5.40;;;3.17;;
48199;SDS011;33990;44.602;10.976;2024-02-28T12:47:13;5.25;;;3.20;;
48199;SDS011;33990;44.602;10.976;2024-02-28T12:49:40;4.60;;;3.22;;
48199;SDS011;33990;44.602;10.976;2024-02-28T12:52:08;5.78;;;3.20;;
48199;SDS011;33990;44.602;10.976;2024-02-28T12:54:35;4.65;;;2.78;;
48199;SDS011;33990;44.602;10.976;2024-02-28T12:57:02;4.60;;;3.15;;
48199;SDS011;33990;44.602;10.976;2024-02-28T12:59:32;4.45;;;2.90;;
48199;SDS011;33990;44.602;10.976;2024-02-28T13:02:00;4.32;;;2.60;;
48199;SDS011;33990;44.602;10.976;2024-02-28T13:04:27;4.85;;;2.53;;
48199;SDS011;33990;44.602;10.976;2024-02-28T13:06:57;4.85;;;2.90;;
48199;SDS011;33990;44.602;10.976;2024-02-28T13:09:24;4.32;;;2.60;;
48199;SDS011;33990;44.602;10.976;2024-02-28T13:11:52;4.85;;;2.85;;
48199;SDS011;33990;44.602;10.976;2024-02-28T13:14:19;4.05;;;2.60;;
48199;SDS011;33990;44.602;10.976;2024-02-28T13:16:47;3.75;;;2.30;;
48199;SDS011;33990;44.602;10.976;2024-02-28T13:19:15;4.00;;;2.45;;
48199;SDS011;33990;44.602;10.976;2024-02-28T13:21:44;5.93;;;2.45;;
48199;SDS011;33990;44.602;10.976;2024-02-28T13:24:13;3.30;;;1.95;;
48199;SDS011;33990;44.602;10.976;2024-02-28T13:26:43;4.05;;;1.98;;
48199;SDS011;33990;44.602;10.976;2024-02-28T13:29:10;4.22;;;2.40;;
48199;SDS011;33990;44.602;10.976;2024-02-28T13:31:38;4.22;;;2.58;;
48199;SDS011;33990;44.602;10.976;2024-02-28T13:34:06;4.10;;;2.28;;
48199;SDS011;33990;44.602;10.976;2024-02-28T13:36:36;4.60;;;2.58;;
48199;SDS011;33990;44.602;10.976;2024-02-28T13:39:09;5.55;;;2.63;;
48199;SDS011;33990;44.602;10.976;2024-02-28T13:41:39;4.30;;;2.45;;
48199;SDS011;33990;44.602;10.976;2024-02-28T13:44:06;3.67;;;2.22;;
48199;SDS011;33990;44.602;10.976;2024-02-28T13:46:36;4.35;;;2.30;;
48199;SDS011;33990;44.602;10.976;2024-02-28T13:49:04;3.28;;;1.77;;
48199;SDS011;33990;44.602;10.976;2024-02-28T13:51:32;3.38;;;2.20;;
48199;SDS011;33990;44.602;10.976;2024-02-28T13:54:02;5.25;;;2.47;;
48199;SDS011;33990;44.602;10.976;2024-02-28T13:56:29;3.80;;;2.03;;
48199;SDS011;33990;44.602;10.976;2024-02-28T13:58:57;3.42;;;2.20;;
48199;SDS011;33990;44.602;10.976;2024-02-28T14:01:25;3.63;;;2.15;;
48199;SDS011;33990;44.602;10.976;2024-02-28T14:03:52;5.57;;;2.33;;
48199;SDS011;33990;44.602;10.976;2024-02-28T14:06:20;3.13;;;2.05;;
48199;SDS011;33990;44.602;10.976;2024-02-28T14:08:48;2.88;;;1.83;;
48199;SDS011;33990;44.602;10.976;2024-02-28T14:11:15;4.00;;;2.00;;
48199;SDS011;33990;44.602;10.976;2024-02-28T14:13:44;3.17;;;1.83;;
48199;SDS011;33990;44.602;10.976;2024-02-28T14:16:11;3.75;;;2.35;;
48199;SDS011;33990;44.602;10.976;2024-02-28T14:18:39;4.05;;;2.53;;
48199;SDS011;33990;44.602;10.976;2024-02-28T14:21:06;8.88;;;3.08;;
48199;SDS011;33990;44.602;10.976;2024-02-28T14:23:34;3.42;;;1.80;;
48199;SDS011;33990;44.602;10.976;2024-02-28T14:26:02;5.22;;;2.38;;
48199;SDS011;33990;44.602;10.976;2024-02-28T14:28:29;3.60;;;2.15;;
48199;SDS011;33990;44.602;10.976;2024-02-28T14:30:56;3.20;;;1.98;;
48199;SDS011;33990;44.602;10.976;2024-02-28T14:33:24;2.85;;;1.50;;
48199;SDS011;33990;44.602;10.976;2024-02-28T14:35:51;2.42;;;1.45;;
48199;SDS011;33990;44.602;10.976;2024-02-28T14:38:20;4.05;;;2.28;;